createdAt,value
2019-05-25T00:02:20.047Z,12.93
2019-05-25T00:04:50.884Z,12.37
2019-05-25T00:07:21.722Z,11.43
2019-05-25T00:09:52.547Z,12.67
2019-05-25T00:12:23.247Z,12.23
2019-05-25T00:14:54.061Z,12.80
2019-05-25T00:17:24.809Z,11.37
2019-05-25T00:19:55.748Z,11.73
2019-05-25T00:22:26.468Z,10.47
2019-05-25T00:24:57.361Z,9.57
2019-05-25T00:27:28.515Z,9.97
2019-05-25T00:29:59.247Z,10.17
2019-05-25T00:32:29.986Z,9.30
2019-05-25T00:35:00.896Z,9.10
2019-05-25T00:37:33.379Z,8.00
2019-05-25T00:40:04.746Z,8.67
2019-05-25T00:42:36.600Z,8.43
2019-05-25T00:45:08.008Z,8.27
2019-05-25T00:47:38.771Z,8.53
2019-05-25T00:50:10.011Z,9.10
2019-05-25T00:52:40.694Z,8.87
2019-05-25T00:55:12.050Z,9.20
2019-05-25T00:57:44.075Z,9.43
2019-05-25T01:00:15.427Z,9.27
2019-05-25T01:02:46.366Z,9.53
2019-05-25T01:05:17.249Z,9.77
2019-05-25T01:07:48.414Z,9.23
2019-05-25T01:10:19.726Z,8.87
2019-05-25T01:12:50.632Z,9.03
2019-05-25T01:15:33.428Z,8.60
2019-05-25T01:18:04.296Z,9.30
2019-05-25T01:20:35.300Z,8.40
2019-05-25T01:23:06.163Z,8.87
2019-05-25T01:25:37.102Z,9.17
2019-05-25T01:28:09.392Z,9.13
2019-05-25T01:30:40.306Z,9.07
2019-05-25T01:33:11.043Z,9.03
2019-05-25T01:35:41.883Z,8.63
2019-05-25T01:38:12.823Z,8.60
2019-05-25T01:40:43.591Z,9.33
2019-05-25T01:43:14.484Z,9.77
2019-05-25T01:45:45.229Z,10.80
2019-05-25T01:48:16.163Z,10.53
2019-05-25T01:50:46.997Z,11.50
2019-05-25T01:53:17.933Z,10.83
2019-05-25T01:55:48.875Z,10.73
2019-05-25T01:58:20.837Z,11.23
2019-05-25T02:00:51.572Z,11.63
2019-05-25T02:03:22.422Z,11.57
2019-05-25T02:05:53.453Z,13.53
2019-05-25T02:08:24.828Z,12.53
2019-05-25T02:10:55.712Z,15.90
2019-05-25T02:13:26.665Z,16.70
2019-05-25T02:15:57.412Z,16.27
2019-05-25T02:18:28.251Z,15.60
2019-05-25T02:20:59.286Z,17.30
2019-05-25T02:23:29.922Z,16.50
2019-05-25T02:26:12.519Z,22.60
2019-05-25T02:28:43.574Z,20.00
2019-05-25T02:31:14.311Z,26.70
2019-05-25T02:33:45.143Z,25.67
2019-05-25T02:36:15.974Z,26.17
2019-05-25T02:38:47.015Z,26.63
2019-05-25T02:41:17.952Z,26.37
2019-05-25T02:43:48.714Z,23.93
2019-05-25T02:46:19.735Z,25.57
2019-05-25T02:48:50.750Z,26.37
2019-05-25T02:51:21.704Z,27.50
2019-05-25T02:53:52.645Z,26.73
2019-05-25T02:56:23.518Z,25.77
2019-05-25T02:58:54.402Z,27.43
2019-05-25T03:01:25.577Z,27.73
2019-05-25T03:03:56.510Z,25.17
2019-05-25T03:06:28.665Z,24.17
2019-05-25T03:08:59.487Z,23.87
2019-05-25T03:11:32.461Z,23.77
2019-05-25T03:14:04.314Z,24.83
2019-05-25T03:16:35.122Z,24.63
2019-05-25T03:19:06.588Z,22.93
2019-05-25T03:21:37.583Z,23.37
2019-05-25T03:24:08.379Z,22.60
2019-05-25T03:26:39.154Z,21.87
2019-05-25T03:29:10.601Z,23.17
2019-05-25T03:31:41.438Z,23.90
2019-05-25T03:34:12.387Z,21.50
2019-05-25T03:36:43.215Z,19.90
2019-05-25T03:39:14.044Z,21.60
2019-05-25T03:41:44.773Z,19.50
2019-05-25T03:44:15.560Z,19.80
2019-05-25T03:46:46.422Z,20.23
2019-05-25T03:49:18.621Z,21.00
2019-05-25T03:51:49.408Z,20.13
2019-05-25T03:54:20.292Z,19.57
2019-05-25T03:56:51.439Z,19.93
2019-05-25T03:59:22.380Z,20.00
2019-05-25T04:01:53.391Z,20.57
2019-05-25T04:04:24.250Z,19.83
2019-05-25T04:06:55.011Z,20.40
2019-05-25T04:09:25.791Z,20.13
2019-05-25T04:11:56.703Z,19.50
2019-05-25T04:14:27.495Z,19.40
2019-05-25T04:16:58.287Z,19.43
2019-05-25T04:19:29.147Z,20.37
2019-05-25T04:22:00.064Z,19.20
2019-05-25T04:24:30.845Z,18.60
2019-05-25T04:27:01.869Z,17.60
2019-05-25T04:29:33.112Z,17.20
2019-05-25T04:32:04.057Z,16.93
2019-05-25T04:34:34.797Z,16.67
2019-05-25T04:37:05.689Z,16.80
2019-05-25T04:39:38.113Z,15.70
2019-05-25T04:42:09.058Z,16.80
2019-05-25T04:44:39.894Z,15.70
2019-05-25T04:47:24.350Z,15.00
2019-05-25T04:49:43.604Z,15.83
2019-05-25T04:52:14.636Z,16.27
2019-05-25T04:54:46.490Z,15.47
2019-05-25T04:57:18.472Z,14.27
2019-05-25T04:59:49.203Z,14.77
2019-05-25T05:02:19.997Z,13.70
2019-05-25T05:04:50.984Z,13.80
2019-05-25T05:07:21.806Z,12.60
2019-05-25T05:10:02.282Z,12.53
2019-05-25T05:12:24.920Z,12.63
2019-05-25T05:14:56.513Z,11.70
2019-05-25T05:17:27.599Z,12.13
2019-05-25T05:19:58.267Z,11.30
2019-05-25T05:22:29.240Z,10.87
2019-05-25T05:24:59.894Z,10.17
2019-05-25T05:27:30.807Z,10.03
2019-05-25T05:30:03.380Z,10.53
2019-05-25T05:32:34.262Z,9.73
2019-05-25T05:35:06.588Z,9.37
2019-05-25T05:37:38.052Z,8.30
2019-05-25T05:40:09.752Z,8.83
2019-05-25T05:42:43.336Z,8.80
2019-05-25T05:45:14.286Z,8.67
2019-05-25T05:47:47.197Z,7.70
2019-05-25T05:50:18.407Z,8.30
2019-05-25T05:52:51.701Z,7.43
2019-05-25T05:55:30.751Z,6.93
2019-05-25T05:58:03.115Z,7.17
2019-05-25T06:00:34.255Z,6.87
2019-05-25T06:03:05.319Z,6.97
2019-05-25T06:05:36.063Z,6.33
2019-05-25T06:08:06.960Z,6.70
2019-05-25T06:10:38.007Z,6.50
2019-05-25T06:13:09.253Z,5.67
2019-05-25T06:15:40.093Z,5.47
2019-05-25T06:18:10.959Z,4.97
2019-05-25T06:20:41.864Z,5.47
2019-05-25T06:23:12.901Z,6.37
2019-05-25T06:25:44.576Z,5.50
2019-05-25T06:28:18.277Z,4.93
2019-05-25T06:30:49.917Z,5.23
2019-05-25T06:33:21.942Z,4.90
2019-05-25T06:35:52.756Z,5.00
2019-05-25T06:38:23.652Z,5.20
2019-05-25T06:40:54.367Z,4.80
2019-05-25T06:43:25.323Z,4.67
2019-05-25T06:45:56.058Z,4.07
2019-05-25T06:48:27.034Z,4.40
2019-05-25T06:50:57.688Z,4.30
2019-05-25T06:53:29.705Z,3.83
2019-05-25T06:56:00.427Z,4.40
2019-05-25T06:58:31.463Z,4.20
2019-05-25T07:01:02.133Z,4.10
2019-05-25T07:03:33.182Z,3.60
2019-05-25T07:06:03.883Z,3.40
2019-05-25T07:08:34.937Z,3.80
2019-05-25T07:11:05.860Z,3.70
2019-05-25T07:13:36.692Z,3.40
2019-05-25T07:16:07.843Z,3.50
2019-05-25T07:18:38.683Z,3.90
2019-05-25T07:21:10.751Z,3.77
2019-05-25T07:23:41.676Z,3.65
2019-05-25T07:26:12.612Z,3.00
2019-05-25T07:28:43.509Z,2.98
2019-05-25T07:31:14.349Z,3.15
2019-05-25T07:33:45.423Z,2.80
2019-05-25T07:36:16.384Z,3.20
2019-05-25T07:38:47.097Z,3.15
2019-05-25T07:41:17.969Z,3.08
2019-05-25T07:43:48.771Z,2.77
2019-05-25T07:46:20.630Z,2.80
2019-05-25T07:48:51.712Z,2.87
2019-05-25T07:51:22.813Z,2.95
2019-05-25T07:53:53.749Z,2.60
2019-05-25T07:56:24.793Z,3.08
2019-05-25T07:58:55.733Z,3.00
2019-05-25T08:01:26.773Z,3.08
2019-05-25T08:03:57.673Z,3.33
2019-05-25T08:06:29.293Z,3.70
2019-05-25T08:09:00.259Z,2.98
2019-05-25T08:11:31.198Z,2.92
2019-05-25T08:14:02.119Z,2.87
2019-05-25T08:16:33.179Z,2.83
2019-05-25T08:19:03.988Z,3.40
2019-05-25T08:21:34.999Z,3.08
2019-05-25T08:24:06.072Z,3.30
2019-05-25T08:26:37.081Z,2.85
2019-05-25T08:29:07.892Z,3.17
2019-05-25T08:31:38.771Z,3.10
2019-05-25T08:34:12.689Z,3.10
2019-05-25T08:36:44.829Z,2.90
2019-05-25T08:39:15.724Z,2.42
2019-05-25T08:41:46.668Z,2.98
2019-05-25T08:44:17.591Z,2.90
2019-05-25T08:46:49.813Z,3.00
2019-05-25T08:49:20.650Z,2.70
2019-05-25T08:51:54.829Z,2.92
2019-05-25T08:54:24.491Z,2.77
2019-05-25T08:56:55.518Z,2.80
2019-05-25T08:59:26.311Z,2.87
2019-05-25T09:01:57.338Z,2.90
2019-05-25T09:04:28.520Z,2.60
2019-05-25T09:06:59.640Z,2.70
2019-05-25T09:09:30.560Z,2.87
2019-05-25T09:12:02.458Z,2.75
2019-05-25T09:14:33.626Z,2.60
2019-05-25T09:17:04.665Z,3.00
2019-05-25T09:19:35.622Z,3.37
2019-05-25T09:22:06.704Z,2.90
2019-05-25T09:24:39.322Z,2.98
2019-05-25T09:27:10.731Z,3.50
2019-05-25T09:29:41.614Z,3.60
2019-05-25T09:32:12.496Z,3.40
2019-05-25T09:34:43.523Z,3.00
2019-05-25T09:37:14.684Z,3.30
2019-05-25T09:39:45.707Z,3.55
2019-05-25T09:42:16.672Z,3.00
2019-05-25T09:44:47.702Z,3.25
2019-05-25T09:47:18.562Z,3.42
2019-05-25T09:49:50.609Z,3.25
2019-05-25T09:52:21.607Z,2.80
2019-05-25T09:54:55.603Z,3.42
2019-05-25T09:57:25.417Z,3.12
2019-05-25T09:59:56.196Z,3.52
2019-05-25T10:02:27.237Z,3.55
2019-05-25T10:04:58.319Z,3.30
2019-05-25T10:07:30.007Z,3.02
2019-05-25T10:10:01.157Z,3.27
2019-05-25T10:12:32.198Z,3.50
2019-05-25T10:15:03.089Z,3.33
2019-05-25T10:17:34.150Z,3.50
2019-05-25T10:20:05.743Z,2.90
2019-05-25T10:22:36.934Z,3.60
2019-05-25T10:25:09.346Z,3.98
2019-05-25T10:27:40.364Z,3.35
2019-05-25T10:30:11.841Z,3.35
2019-05-25T10:32:43.185Z,3.52
2019-05-25T10:35:15.144Z,3.72
2019-05-25T10:37:47.166Z,3.20
2019-05-25T10:40:18.565Z,3.25
2019-05-25T10:42:49.731Z,3.62
2019-05-25T10:45:22.720Z,4.47
2019-05-25T10:47:53.690Z,3.92
2019-05-25T10:50:25.088Z,4.05
2019-05-25T10:52:56.532Z,4.17
2019-05-25T10:55:27.441Z,4.10
2019-05-25T10:57:58.560Z,4.65
2019-05-25T11:00:30.290Z,3.90
2019-05-25T11:03:01.171Z,3.85
2019-05-25T11:05:32.220Z,4.37
2019-05-25T11:08:03.293Z,4.22
2019-05-25T11:10:34.546Z,4.17
2019-05-25T11:13:05.738Z,4.05
2019-05-25T11:15:37.213Z,3.77
2019-05-25T11:18:08.384Z,3.70
2019-05-25T11:20:39.442Z,3.72
2019-05-25T11:23:10.644Z,3.72
2019-05-25T11:25:41.576Z,4.12
2019-05-25T11:28:12.865Z,3.35
2019-05-25T11:30:44.008Z,3.80
2019-05-25T11:33:15.008Z,3.90
2019-05-25T11:35:46.147Z,3.70
2019-05-25T11:38:17.337Z,3.42
2019-05-25T11:40:48.342Z,3.10
2019-05-25T11:43:19.248Z,3.40
2019-05-25T11:45:50.091Z,3.77
2019-05-25T11:48:21.047Z,3.20
2019-05-25T11:50:52.100Z,3.65
2019-05-25T11:53:23.004Z,3.50
2019-05-25T11:55:54.335Z,3.10
2019-05-25T11:58:25.065Z,3.60
2019-05-25T12:00:55.850Z,3.50
2019-05-25T12:03:26.815Z,3.22
2019-05-25T12:05:57.724Z,3.00
2019-05-25T12:08:28.879Z,2.92
2019-05-25T12:11:00.685Z,2.90
2019-05-25T12:13:32.637Z,2.90
2019-05-25T12:16:03.735Z,3.30
2019-05-25T12:18:34.680Z,3.33
2019-05-25T12:21:05.522Z,3.55
2019-05-25T12:23:36.519Z,3.20
2019-05-25T12:26:07.349Z,3.42
2019-05-25T12:28:38.418Z,3.98
2019-05-25T12:31:10.112Z,4.10
2019-05-25T12:33:41.059Z,4.33
2019-05-25T12:36:12.269Z,4.45
2019-05-25T12:39:02.245Z,4.30
2019-05-25T12:41:33.187Z,4.70
2019-05-25T12:44:04.271Z,4.53
2019-05-25T12:46:35.669Z,4.28
2019-05-25T12:49:06.516Z,4.30
2019-05-25T12:51:37.427Z,4.65
2019-05-25T12:54:08.390Z,4.00
2019-05-25T12:56:39.372Z,4.85
2019-05-25T12:59:10.225Z,5.00
2019-05-25T13:01:41.207Z,5.12
2019-05-25T13:04:12.060Z,4.80
2019-05-25T13:06:44.144Z,5.03
2019-05-25T13:09:15.052Z,5.40
2019-05-25T13:11:46.035Z,6.10
2019-05-25T13:14:16.719Z,6.25
2019-05-25T13:16:47.535Z,5.58
2019-05-25T13:19:18.618Z,5.87
2019-05-25T13:21:49.754Z,4.83
2019-05-25T13:24:21.483Z,5.87
2019-05-25T13:26:52.614Z,4.85
2019-05-25T13:29:23.721Z,6.05
2019-05-25T13:31:54.518Z,6.42
2019-05-25T13:34:25.617Z,7.00
2019-05-25T13:36:56.701Z,7.62
2019-05-25T13:39:27.785Z,7.95
2019-05-25T13:41:58.667Z,7.78
2019-05-25T13:44:29.460Z,7.85
2019-05-25T13:47:00.578Z,6.80
2019-05-25T13:49:31.445Z,7.60
2019-05-25T13:52:02.445Z,6.50
2019-05-25T13:54:33.476Z,7.75
2019-05-25T13:57:04.590Z,9.00
2019-05-25T13:59:35.731Z,9.28
2019-05-25T14:02:06.954Z,9.60
2019-05-25T14:04:38.094Z,9.00
2019-05-25T14:07:09.090Z,9.13
2019-05-25T14:09:40.157Z,9.00
2019-05-25T14:12:11.201Z,8.88
2019-05-25T14:14:42.214Z,10.03
2019-05-25T14:17:13.259Z,9.05
2019-05-25T14:19:44.097Z,10.03
2019-05-25T14:22:14.976Z,10.40
2019-05-25T14:24:45.876Z,10.80
2019-05-25T14:27:16.721Z,10.13
2019-05-25T14:29:47.600Z,8.03
2019-05-25T14:32:18.692Z,9.73
2019-05-25T14:34:49.824Z,8.70
2019-05-25T14:37:21.185Z,8.65
2019-05-25T14:39:52.011Z,8.53
2019-05-25T14:42:22.961Z,8.20
2019-05-25T14:44:53.996Z,7.97
2019-05-25T14:47:25.531Z,7.60
2019-05-25T14:49:56.258Z,8.18
2019-05-25T14:52:28.198Z,6.78
2019-05-25T14:54:59.281Z,6.40
2019-05-25T14:57:30.049Z,5.75
2019-05-25T15:00:01.371Z,5.20
2019-05-25T15:02:33.510Z,4.22
2019-05-25T15:05:05.018Z,4.55
2019-05-25T15:07:35.971Z,4.05
2019-05-25T15:10:07.399Z,3.15
2019-05-25T15:12:38.265Z,3.55
2019-05-25T15:15:09.492Z,3.20
2019-05-25T15:17:42.977Z,3.40
2019-05-25T15:20:13.995Z,3.35
2019-05-25T15:22:46.957Z,2.83
2019-05-25T15:25:19.967Z,2.67
2019-05-25T15:27:50.829Z,2.12
2019-05-25T15:30:22.193Z,1.77
2019-05-25T15:32:53.104Z,1.85
2019-05-25T15:35:24.148Z,2.17
2019-05-25T15:37:55.048Z,1.85
2019-05-25T15:40:27.151Z,2.20
2019-05-25T15:42:58.212Z,2.10
2019-05-25T15:45:29.403Z,1.92
2019-05-25T15:48:02.130Z,2.12
2019-05-25T15:50:33.197Z,2.25
2019-05-25T15:53:04.395Z,1.90
2019-05-25T15:55:36.796Z,1.70
2019-05-25T15:58:07.677Z,1.77
2019-05-25T16:00:49.912Z,1.37
2019-05-25T16:03:21.674Z,1.37
2019-05-25T16:05:52.930Z,2.17
2019-05-25T16:08:23.968Z,2.40
2019-05-25T16:10:56.126Z,2.65
2019-05-25T16:13:27.154Z,2.70
2019-05-25T16:15:58.328Z,2.60
2019-05-25T16:18:29.228Z,2.60
2019-05-25T16:21:01.374Z,2.55
2019-05-25T16:23:32.341Z,2.80
2019-05-25T16:26:03.516Z,2.55
2019-05-25T16:28:34.641Z,2.37
2019-05-25T16:31:06.032Z,2.30
2019-05-25T16:33:37.152Z,2.50
2019-05-25T16:36:08.367Z,2.40
2019-05-25T16:38:39.387Z,2.60
2019-05-25T16:41:10.403Z,2.33
2019-05-25T16:43:41.637Z,2.70
2019-05-25T16:46:12.632Z,2.50
2019-05-25T16:48:44.541Z,2.42
2019-05-25T16:51:16.745Z,2.90
2019-05-25T16:53:47.883Z,2.47
2019-05-25T16:56:22.980Z,2.50
2019-05-25T16:58:54.049Z,2.58
2019-05-25T17:01:25.030Z,2.70
2019-05-25T17:03:56.073Z,2.55
2019-05-25T17:06:27.007Z,2.85
2019-05-25T17:08:58.064Z,2.55
2019-05-25T17:11:29.106Z,2.60
2019-05-25T17:14:00.241Z,2.27
2019-05-25T17:16:32.442Z,2.83
2019-05-25T17:19:03.840Z,2.98
2019-05-25T17:21:34.942Z,2.72
2019-05-25T17:24:06.525Z,2.58
2019-05-25T17:26:37.798Z,2.85
2019-05-25T17:29:09.347Z,2.62
2019-05-25T17:31:40.689Z,2.62
2019-05-25T17:34:11.705Z,2.43
2019-05-25T17:36:42.726Z,2.45
2019-05-25T17:39:13.897Z,2.47
2019-05-25T17:41:45.828Z,2.30
2019-05-25T17:44:17.149Z,2.17
2019-05-25T17:46:48.229Z,2.60
2019-05-25T17:49:19.808Z,2.80
2019-05-25T17:51:50.951Z,2.17
2019-05-25T17:54:22.112Z,2.60
2019-05-25T17:56:53.308Z,2.47
2019-05-25T17:59:24.183Z,2.75
2019-05-25T18:01:55.492Z,2.87
2019-05-25T18:04:26.888Z,3.02
2019-05-25T18:06:58.133Z,2.92
2019-05-25T18:09:29.217Z,2.83
2019-05-25T18:12:00.749Z,3.08
2019-05-25T18:14:31.504Z,3.40
2019-05-25T18:17:02.589Z,3.53
2019-05-25T18:19:33.696Z,3.40
2019-05-25T18:22:04.913Z,3.40
2019-05-25T18:24:35.943Z,4.07
2019-05-25T18:27:08.020Z,3.60
2019-05-25T18:29:39.336Z,3.50
2019-05-25T18:32:10.913Z,3.63
2019-05-25T18:34:41.874Z,3.80
2019-05-25T18:37:12.776Z,3.53
2019-05-25T18:39:43.682Z,3.60
2019-05-25T18:42:14.860Z,3.30
2019-05-25T18:44:46.818Z,3.80
2019-05-25T18:47:17.766Z,3.90
2019-05-25T18:49:48.779Z,3.43
2019-05-25T18:52:19.945Z,3.90
2019-05-25T18:54:50.955Z,3.90
2019-05-25T18:57:22.015Z,4.10
2019-05-25T18:59:53.313Z,4.17
2019-05-25T19:02:24.353Z,5.60
2019-05-25T19:04:59.845Z,4.53
2019-05-25T19:07:28.446Z,4.10
2019-05-25T19:10:11.199Z,4.90
2019-05-25T19:12:43.875Z,4.30
2019-05-25T19:15:16.031Z,4.60
2019-05-25T19:17:48.673Z,3.90
2019-05-25T19:20:21.481Z,4.50
2019-05-25T19:22:55.244Z,3.77
2019-05-25T19:25:28.205Z,4.20
2019-05-25T19:28:00.849Z,4.70
2019-05-25T19:30:33.429Z,4.27
2019-05-25T19:33:05.796Z,4.53
2019-05-25T19:35:38.830Z,4.83
2019-05-25T19:38:11.861Z,4.90
2019-05-25T19:40:44.791Z,4.20
2019-05-25T19:43:17.351Z,4.47
2019-05-25T19:45:50.135Z,4.23
2019-05-25T19:48:22.066Z,4.33
2019-05-25T19:50:56.303Z,4.10
2019-05-25T19:53:28.812Z,4.13
2019-05-25T19:55:59.961Z,3.70
2019-05-25T19:58:31.378Z,3.67
2019-05-25T20:01:03.016Z,3.30
2019-05-25T20:03:34.259Z,3.70
2019-05-25T20:06:40.230Z,3.60
2019-05-25T20:09:13.017Z,3.70
2019-05-25T20:11:44.259Z,3.70
2019-05-25T20:14:15.396Z,3.43
2019-05-25T20:16:46.372Z,3.67
2019-05-25T20:19:17.586Z,3.80
2019-05-25T20:21:48.572Z,3.67
2019-05-25T20:24:19.445Z,3.83
2019-05-25T20:26:50.362Z,3.93
2019-05-25T20:29:21.645Z,3.77
2019-05-25T20:31:52.897Z,3.60
2019-05-25T20:34:23.938Z,4.17
2019-05-25T20:36:56.332Z,3.80
2019-05-25T20:39:27.337Z,4.10
2019-05-25T20:41:59.716Z,4.23
2019-05-25T20:44:30.535Z,4.50
2019-05-25T20:47:02.121Z,4.27
2019-05-25T20:49:33.024Z,4.27
2019-05-25T20:52:04.360Z,4.30
2019-05-25T20:54:35.392Z,4.60
2019-05-25T20:57:06.330Z,4.20
2019-05-25T20:59:37.524Z,4.40
2019-05-25T21:02:08.558Z,4.67
2019-05-25T21:04:39.698Z,4.60
2019-05-25T21:07:10.725Z,4.40
2019-05-25T21:09:41.764Z,4.27
2019-05-25T21:12:12.680Z,5.10
2019-05-25T21:14:43.389Z,5.07
2019-05-25T21:17:14.296Z,4.87
2019-05-25T21:19:45.030Z,4.77
2019-05-25T21:22:16.955Z,4.70
2019-05-25T21:24:47.772Z,5.13
2019-05-25T21:27:18.757Z,5.10
2019-05-25T21:29:49.840Z,5.43
2019-05-25T21:32:20.711Z,5.60
2019-05-25T21:34:51.648Z,5.77
2019-05-25T21:37:22.421Z,5.30
2019-05-25T21:39:53.262Z,6.40
2019-05-25T21:42:24.084Z,6.00
2019-05-25T21:44:55.116Z,5.90
2019-05-25T21:47:26.280Z,5.97
2019-05-25T21:49:57.416Z,6.50
2019-05-25T21:52:28.269Z,6.03
2019-05-25T21:54:59.160Z,6.43
2019-05-25T21:57:30.217Z,6.30
2019-05-25T22:00:01.232Z,7.23
2019-05-25T22:02:32.304Z,6.90
2019-05-25T22:05:03.233Z,7.33
2019-05-25T22:07:35.302Z,6.90
2019-05-25T22:10:06.440Z,8.13
2019-05-25T22:12:40.093Z,9.00
2019-05-25T22:15:10.980Z,8.07
2019-05-25T22:17:41.906Z,9.03
2019-05-25T22:20:15.633Z,9.50
2019-05-25T22:22:46.350Z,8.53
2019-05-25T22:25:17.297Z,9.17
2019-05-25T22:27:48.145Z,9.00
2019-05-25T22:30:19.383Z,10.53
2019-05-25T22:32:50.114Z,8.87
2019-05-25T22:35:20.949Z,9.07
2019-05-25T22:37:51.683Z,8.93
2019-05-25T22:40:22.503Z,9.50
2019-05-25T22:42:53.264Z,9.23
2019-05-25T22:45:24.919Z,10.30
2019-05-25T22:47:55.851Z,9.10
2019-05-25T22:50:26.783Z,9.47
2019-05-25T22:52:57.468Z,9.87
2019-05-25T22:55:28.458Z,10.73
2019-05-25T22:57:59.277Z,10.67
2019-05-25T23:00:30.130Z,12.30
2019-05-25T23:03:00.935Z,12.13
2019-05-25T23:05:32.326Z,12.10
2019-05-25T23:08:03.159Z,11.43
2019-05-25T23:10:33.916Z,10.77
2019-05-25T23:13:04.821Z,11.73
2019-05-25T23:15:35.865Z,11.67
2019-05-25T23:18:06.765Z,12.43
2019-05-25T23:20:37.730Z,11.90
2019-05-25T23:23:08.514Z,12.30
2019-05-25T23:25:39.419Z,13.00
2019-05-25T23:28:11.169Z,11.57
2019-05-25T23:30:42.427Z,11.20
2019-05-25T23:33:13.570Z,12.17
2019-05-25T23:35:44.612Z,12.37
2019-05-25T23:38:15.343Z,12.13
2019-05-25T23:40:46.241Z,12.43
2019-05-25T23:43:17.109Z,12.90
2019-05-25T23:45:47.999Z,13.20
2019-05-25T23:48:18.802Z,13.23
2019-05-25T23:50:49.972Z,14.20
2019-05-25T23:53:20.701Z,13.80
2019-05-25T23:55:51.563Z,13.67
2019-05-25T23:58:22.302Z,13.80
